Time;durP1;ratioP1;P1;durP2;ratioP2;P2;SDS_P1;SDS_P2;PMS_P1;PMS_P2;Temp;Humidity;BMP_temperature;BMP_pressure;BME280_temperature;BME280_humidity;BME280_pressure;Samples;Min_cycle;Max_cycle;Signal;HPM_P1;HPM_P2
2021/05/29 00:01:20;;;;;;;8.38;2.60;;;;;;;;;;5029422;28;20029;-81
2021/05/29 00:03:48;;;;;;;7.43;2.20;;;;;;;;;;5025896;28;20036;-79
2021/05/29 00:06:16;;;;;;;9.60;2.25;;;;;;;;;;5028302;28;20025;-81
2021/05/29 00:08:45;;;;;;;6.72;2.17;;;;;;;;;;5027736;28;20021;-80
2021/05/29 00:11:12;;;;;;;8.45;2.80;;;;;;;;;;5021073;28;20033;-82
2021/05/29 00:13:40;;;;;;;9.25;2.60;;;;;;;;;;5027520;28;20496;-79
2021/05/29 00:16:09;;;;;;;8.68;2.70;;;;;;;;;;5031356;28;20028;-80
2021/05/29 00:18:37;;;;;;;8.43;2.38;;;;;;;;;;5031876;28;20039;-80
2021/05/29 00:21:05;;;;;;;8.45;2.25;;;;;;;;;;5030832;28;20347;-79
2021/05/29 00:23:31;;;;;;;9.05;2.17;;;;;;;;;;5005797;28;20056;-80
2021/05/29 00:25:58;;;;;;;6.95;2.22;;;;;;;;;;5012688;28;20025;-79
2021/05/29 00:28:25;;;;;;;7.45;2.03;;;;;;;;;;5009101;28;20064;-80
2021/05/29 00:30:51;;;;;;;8.25;2.40;;;;;;;;;;5027852;28;20025;-80
2021/05/29 00:33:18;;;;;;;7.50;2.30;;;;;;;;;;5023640;28;20053;-79
2021/05/29 00:35:46;;;;;;;7.90;2.00;;;;;;;;;;5010404;28;20478;-81
2021/05/29 00:38:15;;;;;;;7.97;2.13;;;;;;;;;;5021955;28;20037;-80
2021/05/29 00:40:41;;;;;;;7.93;2.33;;;;;;;;;;5011975;28;20486;-82
2021/05/29 00:43:07;;;;;;;7.57;2.00;;;;;;;;;;5021909;28;20028;-80
2021/05/29 00:45:34;;;;;;;7.22;2.10;;;;;;;;;;5012876;28;20056;-81
2021/05/29 00:48:02;;;;;;;6.72;2.00;;;;;;;;;;5023569;28;20834;-81
2021/05/29 00:50:34;;;;;;;7.72;1.80;;;;;;;;;;5012825;28;20034;-80
2021/05/29 00:53:05;;;;;;;6.50;1.90;;;;;;;;;;5009946;28;20029;-79
2021/05/29 00:55:31;;;;;;;6.50;2.00;;;;;;;;;;5010037;28;20029;-80
2021/05/29 00:57:59;;;;;;;7.20;2.00;;;;;;;;;;5018406;28;20059;-81
2021/05/29 01:00:26;;;;;;;7.22;1.70;;;;;;;;;;5005228;28;21020;-81
2021/05/29 01:02:53;;;;;;;6.13;1.90;;;;;;;;;;5011156;28;20025;-81
2021/05/29 01:05:21;;;;;;;6.85;1.85;;;;;;;;;;5005060;28;20795;-81
2021/05/29 01:07:49;;;;;;;7.07;1.75;;;;;;;;;;5007461;28;20042;-80
2021/05/29 01:10:17;;;;;;;6.20;1.70;;;;;;;;;;5005171;28;20156;-81
2021/05/29 01:12:51;;;;;;;7.13;1.80;;;;;;;;;;5008382;28;20063;-80
2021/05/29 01:15:20;;;;;;;7.10;1.90;;;;;;;;;;4993557;28;20038;-81
2021/05/29 01:17:48;;;;;;;6.10;1.67;;;;;;;;;;5024192;28;20069;-81
2021/05/29 01:20:14;;;;;;;6.55;1.83;;;;;;;;;;5015340;28;20025;-81
2021/05/29 01:22:47;;;;;;;7.00;2.25;;;;;;;;;;5022746;28;20046;-81
2021/05/29 01:25:29;;;;;;;5.85;1.90;;;;;;;;;;5020321;28;20038;-82
2021/05/29 01:28:19;;;;;;;5.78;1.70;;;;;;;;;;5009727;28;20029;-82
2021/05/29 01:30:56;;;;;;;6.82;1.90;;;;;;;;;;5006889;28;20029;-83
2021/05/29 01:33:29;;;;;;;6.82;1.98;;;;;;;;;;5019752;28;20033;-81
2021/05/29 01:36:07;;;;;;;6.72;1.58;;;;;;;;;;5027707;28;20033;-80
2021/05/29 01:38:35;;;;;;;5.80;1.73;;;;;;;;;;5011537;28;20144;-78
2021/05/29 01:41:03;;;;;;;7.50;2.05;;;;;;;;;;5008450;28;20100;-80
2021/05/29 01:43:31;;;;;;;7.40;1.77;;;;;;;;;;5005889;28;20022;-79
2021/05/29 01:45:58;;;;;;;6.25;1.67;;;;;;;;;;5010073;28;20033;-80
2021/05/29 01:48:33;;;;;;;6.60;1.90;;;;;;;;;;5004608;28;20028;-80
2021/05/29 01:51:00;;;;;;;6.05;1.65;;;;;;;;;;5005334;28;20432;-80
2021/05/29 01:53:28;;;;;;;5.97;1.70;;;;;;;;;;5022325;28;20041;-79
2021/05/29 01:55:55;;;;;;;7.90;2.10;;;;;;;;;;5005575;28;20573;-80
2021/05/29 01:58:22;;;;;;;5.82;1.77;;;;;;;;;;5024540;28;20084;-79
2021/05/29 02:00:48;;;;;;;6.78;1.70;;;;;;;;;;5020824;28;20091;-80
2021/05/29 02:03:19;;;;;;;7.07;1.98;;;;;;;;;;5017728;28;20120;-80
2021/05/29 02:05:45;;;;;;;6.95;1.80;;;;;;;;;;5008669;28;20033;-80
2021/05/29 02:08:14;;;;;;;8.25;1.90;;;;;;;;;;5018730;28;20043;-80
2021/05/29 02:10:43;;;;;;;6.25;1.70;;;;;;;;;;5032129;28;20025;-79
2021/05/29 02:13:11;;;;;;;5.68;1.63;;;;;;;;;;5002741;28;20049;-82
2021/05/29 02:15:39;;;;;;;5.68;1.77;;;;;;;;;;5008901;28;20838;-80
2021/05/29 02:18:07;;;;;;;6.15;1.70;;;;;;;;;;5022380;28;20029;-81
2021/05/29 02:20:44;;;;;;;5.45;1.73;;;;;;;;;;5023629;28;20068;-80
2021/05/29 02:23:12;;;;;;;5.65;1.45;;;;;;;;;;5023116;28;20146;-81
2021/05/29 02:25:39;;;;;;;8.10;2.45;;;;;;;;;;5005025;28;20045;-80
2021/05/29 02:28:06;;;;;;;8.95;2.25;;;;;;;;;;5023610;28;20075;-80
2021/05/29 02:30:34;;;;;;;9.25;2.10;;;;;;;;;;5014026;28;20140;-80
2021/05/29 02:33:04;;;;;;;5.88;1.70;;;;;;;;;;5007980;28;20045;-79
2021/05/29 02:35:30;;;;;;;5.57;1.45;;;;;;;;;;5019285;28;20029;-81
2021/05/29 02:37:56;;;;;;;5.57;1.50;;;;;;;;;;5010023;28;20141;-81
2021/05/29 02:40:24;;;;;;;6.88;1.77;;;;;;;;;;5021953;28;20108;-80
2021/05/29 02:42:51;;;;;;;4.55;1.35;;;;;;;;;;5022051;28;20834;-80
2021/05/29 02:45:19;;;;;;;5.90;1.55;;;;;;;;;;5004235;28;20034;-80
2021/05/29 02:47:46;;;;;;;5.78;1.77;;;;;;;;;;5012840;28;20052;-81
2021/05/29 02:50:15;;;;;;;5.78;1.52;;;;;;;;;;5021186;28;20029;-81
2021/05/29 02:52:41;;;;;;;5.38;1.30;;;;;;;;;;5019358;28;20038;-80
2021/05/29 02:55:12;;;;;;;4.00;1.20;;;;;;;;;;5016392;28;20060;-81
2021/05/29 02:57:38;;;;;;;4.97;1.20;;;;;;;;;;5005074;28;20025;-80
2021/05/29 03:00:06;;;;;;;3.92;1.20;;;;;;;;;;5004204;28;20049;-81
2021/05/29 03:02:32;;;;;;;4.88;1.35;;;;;;;;;;5020283;28;20156;-81
2021/05/29 03:04:58;;;;;;;6.60;1.45;;;;;;;;;;5018575;28;20033;-80
2021/05/29 03:07:25;;;;;;;3.97;1.20;;;;;;;;;;5015930;28;20048;-80
2021/05/29 03:09:52;;;;;;;5.18;1.10;;;;;;;;;;5009542;28;20093;-79
2021/05/29 03:12:19;;;;;;;5.57;1.25;;;;;;;;;;5001643;28;20033;-80
2021/05/29 03:14:46;;;;;;;7.53;1.30;;;;;;;;;;5024910;28;20033;-80
2021/05/29 03:17:12;;;;;;;6.32;1.38;;;;;;;;;;5004129;28;20033;-81
2021/05/29 03:19:39;;;;;;;3.60;1.00;;;;;;;;;;5009473;28;20056;-80
2021/05/29 03:22:06;;;;;;;5.63;1.40;;;;;;;;;;5022756;28;20049;-80
2021/05/29 03:24:32;;;;;;;5.22;1.25;;;;;;;;;;5007753;28;20030;-79
2021/05/29 03:26:58;;;;;;;6.05;1.48;;;;;;;;;;5020073;28;21511;-80
2021/05/29 03:29:25;;;;;;;5.95;1.58;;;;;;;;;;4999749;28;20042;-83
2021/05/29 03:31:53;;;;;;;6.18;1.20;;;;;;;;;;5024421;28;20087;-81
2021/05/29 03:34:19;;;;;;;5.30;1.50;;;;;;;;;;5003765;28;20044;-80
2021/05/29 03:36:45;;;;;;;6.78;1.50;;;;;;;;;;5014237;28;20033;-79
2021/05/29 03:39:12;;;;;;;6.13;1.30;;;;;;;;;;4998134;28;20037;-79
2021/05/29 03:41:38;;;;;;;6.80;1.58;;;;;;;;;;5024524;28;20035;-82
2021/05/29 03:44:06;;;;;;;6.43;1.70;;;;;;;;;;5007198;28;20379;-81
2021/05/29 03:46:33;;;;;;;6.20;1.77;;;;;;;;;;5024375;28;20076;-81
2021/05/29 03:48:59;;;;;;;7.03;1.88;;;;;;;;;;5030854;28;20025;-79
2021/05/29 03:51:26;;;;;;;6.20;2.00;;;;;;;;;;5017586;28;21714;-81
2021/05/29 03:53:52;;;;;;;6.78;1.75;;;;;;;;;;5027638;28;20034;-80
2021/05/29 03:56:18;;;;;;;;;;;;;;;;;;5005149;28;20035;-79
2021/05/29 03:58:44;;;;;;;6.63;1.75;;;;;;;;;;5036403;28;19917;-80
2021/05/29 04:01:12;;;;;;;5.82;1.95;;;;;;;;;;5025421;28;20483;-81
2021/05/29 04:03:39;;;;;;;5.35;1.63;;;;;;;;;;5006973;28;20037;-80
2021/05/29 04:06:06;;;;;;;7.97;1.95;;;;;;;;;;5029398;28;20037;-80
2021/05/29 04:08:32;;;;;;;6.15;1.63;;;;;;;;;;5009440;28;20036;-79
2021/05/29 04:11:00;;;;;;;5.32;1.67;;;;;;;;;;5027300;28;20549;-80
2021/05/29 04:13:27;;;;;;;5.38;1.50;;;;;;;;;;5003236;28;23124;-80
2021/05/29 04:15:54;;;;;;;6.82;1.83;;;;;;;;;;5012181;28;20082;-79
2021/05/29 04:18:21;;;;;;;6.78;1.60;;;;;;;;;;5022023;28;20107;-80
2021/05/29 04:20:49;;;;;;;6.07;1.40;;;;;;;;;;5021026;28;20038;-80
2021/05/29 04:23:16;;;;;;;6.80;1.42;;;;;;;;;;5024526;28;20056;-80
2021/05/29 04:25:44;;;;;;;4.40;1.40;;;;;;;;;;5030218;28;20063;-81
2021/05/29 04:28:10;;;;;;;4.35;1.30;;;;;;;;;;5028950;28;20044;-80
2021/05/29 04:30:37;;;;;;;8.68;1.63;;;;;;;;;;5032019;28;20019;-80
2021/05/29 04:33:05;;;;;;;6.43;1.40;;;;;;;;;;5031520;28;20029;-80
2021/05/29 04:35:32;;;;;;;5.72;1.65;;;;;;;;;;5024824;28;20508;-79
2021/05/29 04:38:00;;;;;;;7.03;1.48;;;;;;;;;;5029901;28;20453;-79
2021/05/29 04:40:28;;;;;;;6.03;1.60;;;;;;;;;;5026055;28;24054;-81
2021/05/29 04:42:55;;;;;;;7.85;1.45;;;;;;;;;;5028877;28;20036;-78
2021/05/29 04:45:22;;;;;;;5.93;1.58;;;;;;;;;;5008855;28;20041;-79
2021/05/29 04:47:51;;;;;;;5.32;1.50;;;;;;;;;;5015277;28;20485;-81
2021/05/29 04:50:18;;;;;;;6.65;1.58;;;;;;;;;;5030548;28;20021;-81
2021/05/29 04:52:45;;;;;;;5.65;1.40;;;;;;;;;;5031407;28;20047;-80
2021/05/29 04:55:13;;;;;;;5.38;1.50;;;;;;;;;;5030106;28;20086;-81
2021/05/29 04:57:39;;;;;;;7.13;1.92;;;;;;;;;;5011513;28;20029;-80
2021/05/29 05:00:07;;;;;;;7.63;1.98;;;;;;;;;;5028803;28;20029;-80
2021/05/29 05:02:35;;;;;;;8.50;1.83;;;;;;;;;;5035337;28;20040;-81
2021/05/29 05:05:01;;;;;;;10.60;2.00;;;;;;;;;;5026510;28;20037;-80
2021/05/29 05:07:27;;;;;;;9.05;1.83;;;;;;;;;;5024544;28;20036;-80
2021/05/29 05:09:54;;;;;;;8.85;2.38;;;;;;;;;;5011020;28;20024;-80
2021/05/29 05:12:21;;;;;;;8.15;2.10;;;;;;;;;;5027493;28;20029;-82
2021/05/29 05:14:48;;;;;;;7.38;2.05;;;;;;;;;;5029543;28;20029;-79
2021/05/29 05:17:15;;;;;;;8.38;2.55;;;;;;;;;;5023945;28;20028;-81
2021/05/29 05:19:43;;;;;;;8.18;2.65;;;;;;;;;;5029508;28;20035;-80
2021/05/29 05:22:09;;;;;;;7.80;2.08;;;;;;;;;;5020522;28;20037;-81
2021/05/29 05:24:36;;;;;;;7.28;1.77;;;;;;;;;;5028057;28;20049;-80
2021/05/29 05:27:03;;;;;;;6.03;1.85;;;;;;;;;;5011139;28;20144;-79
2021/05/29 05:29:30;;;;;;;7.25;2.13;;;;;;;;;;5027443;28;20021;-80
2021/05/29 05:31:58;;;;;;;6.15;1.85;;;;;;;;;;5035770;28;20074;-81
2021/05/29 05:34:26;;;;;;;7.90;1.92;;;;;;;;;;5021936;28;20131;-81
2021/05/29 05:36:53;;;;;;;8.07;2.13;;;;;;;;;;5031121;28;20047;-80
2021/05/29 05:39:20;;;;;;;7.95;1.77;;;;;;;;;;5024695;28;20250;-80
2021/05/29 05:41:48;;;;;;;7.45;1.63;;;;;;;;;;5029971;28;20836;-79
2021/05/29 05:44:14;;;;;;;8.27;1.85;;;;;;;;;;5007564;28;20551;-81
2021/05/29 05:46:40;;;;;;;8.02;2.17;;;;;;;;;;5026893;28;20083;-81
2021/05/29 05:49:07;;;;;;;8.00;1.85;;;;;;;;;;5027492;28;20480;-80
2021/05/29 05:51:34;;;;;;;8.73;2.00;;;;;;;;;;5024707;28;20025;-81
2021/05/29 05:54:01;;;;;;;7.13;2.00;;;;;;;;;;5028648;28;20744;-81
2021/05/29 05:56:29;;;;;;;7.80;1.80;;;;;;;;;;5024332;28;20029;-80
2021/05/29 05:58:57;;;;;;;7.57;2.05;;;;;;;;;;5017933;28;20652;-80
2021/05/29 06:01:27;;;;;;;6.57;2.00;;;;;;;;;;5009803;28;20025;-79
2021/05/29 06:03:53;;;;;;;8.52;2.30;;;;;;;;;;5025335;28;20110;-81
2021/05/29 06:06:20;;;;;;;7.50;2.13;;;;;;;;;;5024470;28;20026;-80
2021/05/29 06:08:57;;;;;;;11.35;3.13;;;;;;;;;;5024572;28;20117;-81
2021/05/29 06:11:24;;;;;;;9.55;3.00;;;;;;;;;;5026044;28;20035;-81
2021/05/29 06:19:11;;;;;;;11.63;3.40;;;;;;;;;;5015862;28;20051;-80
2021/05/29 06:21:43;;;;;;;9.67;3.00;;;;;;;;;;5030899;28;20041;-81
2021/05/29 06:24:09;;;;;;;9.60;3.20;;;;;;;;;;5022801;28;20079;-81
2021/05/29 06:26:35;;;;;;;13.13;3.65;;;;;;;;;;5028898;28;20024;-81
2021/05/29 06:29:04;;;;;;;11.15;3.80;;;;;;;;;;5012032;28;20021;-81
2021/05/29 06:31:31;;;;;;;13.32;3.88;;;;;;;;;;5008356;28;20092;-79
2021/05/29 06:33:59;;;;;;;12.02;3.90;;;;;;;;;;5008314;28;20036;-82
2021/05/29 06:36:25;;;;;;;11.77;4.10;;;;;;;;;;5002193;28;20029;-81
2021/05/29 06:38:51;;;;;;;10.30;3.65;;;;;;;;;;5030123;28;20029;-81
2021/05/29 06:41:23;;;;;;;14.85;4.55;;;;;;;;;;5025348;28;20086;-80
2021/05/29 06:43:50;;;;;;;11.35;3.70;;;;;;;;;;5028140;28;20120;-81
2021/05/29 06:46:17;;;;;;;10.43;2.90;;;;;;;;;;5021911;28;20032;-81
2021/05/29 06:48:46;;;;;;;9.35;3.35;;;;;;;;;;5011514;28;20040;-80
2021/05/29 06:51:21;;;;;;;10.95;3.35;;;;;;;;;;5009579;28;20055;-80
2021/05/29 06:59:56;;;;;;;12.07;3.35;;;;;;;;;;5030639;28;20028;-82
2021/05/29 07:02:24;;;;;;;12.68;3.58;;;;;;;;;;5024538;28;20021;-80
2021/05/29 07:04:52;;;;;;;13.43;4.03;;;;;;;;;;5027358;28;20572;-81
2021/05/29 07:07:21;;;;;;;14.68;4.05;;;;;;;;;;5024874;28;20032;-81
2021/05/29 07:09:52;;;;;;;11.68;3.80;;;;;;;;;;5029338;28;20378;-80
2021/05/29 07:12:18;;;;;;;14.88;3.85;;;;;;;;;;5022433;28;20052;-81
2021/05/29 07:14:45;;;;;;;14.52;4.32;;;;;;;;;;5027063;28;20051;-81
2021/05/29 07:17:14;;;;;;;12.57;5.05;;;;;;;;;;5020021;28;20056;-81
2021/05/29 07:19:42;;;;;;;16.38;4.38;;;;;;;;;;5024540;28;20020;-80
2021/05/29 07:22:09;;;;;;;13.95;4.18;;;;;;;;;;5027651;28;20086;-81
2021/05/29 07:24:35;;;;;;;12.43;4.15;;;;;;;;;;5034716;28;20061;-81
2021/05/29 07:27:02;;;;;;;14.63;4.18;;;;;;;;;;5029410;28;20025;-80
2021/05/29 07:29:30;;;;;;;17.95;3.60;;;;;;;;;;5027582;28;20056;-81
2021/05/29 07:31:57;;;;;;;12.10;4.10;;;;;;;;;;5011855;28;20071;-82
2021/05/29 07:34:25;;;;;;;13.10;3.92;;;;;;;;;;5025294;28;20032;-80
2021/05/29 07:36:51;;;;;;;12.70;4.07;;;;;;;;;;5029412;28;20028;-80
2021/05/29 07:39:20;;;;;;;13.23;3.70;;;;;;;;;;5024065;28;20033;-80
2021/05/29 07:41:47;;;;;;;12.07;4.07;;;;;;;;;;5029536;28;20029;-81
2021/05/29 07:44:16;;;;;;;10.13;3.40;;;;;;;;;;5017710;28;21082;-81
2021/05/29 07:46:44;;;;;;;11.40;3.38;;;;;;;;;;5031923;28;20446;-80
2021/05/29 07:49:12;;;;;;;11.23;3.92;;;;;;;;;;5025848;28;20056;-81
2021/05/29 07:51:39;;;;;;;11.32;3.20;;;;;;;;;;5031107;28;20029;-80
2021/05/29 07:54:08;;;;;;;9.45;2.80;;;;;;;;;;5027712;28;20039;-80
2021/05/29 07:56:36;;;;;;;9.65;2.72;;;;;;;;;;5009602;28;20033;-80
2021/05/29 07:59:06;;;;;;;10.63;2.65;;;;;;;;;;5012048;28;20032;-81
2021/05/29 08:01:58;;;;;;;7.53;1.88;;;;;;;;;;5024846;28;20091;-81
2021/05/29 08:04:28;;;;;;;7.28;1.75;;;;;;;;;;5027978;28;20052;-78
2021/05/29 08:06:54;;;;;;;7.38;1.42;;;;;;;;;;5026857;28;20128;-79
2021/05/29 08:09:22;;;;;;;7.43;2.13;;;;;;;;;;5020110;28;20025;-80
2021/05/29 08:11:50;;;;;;;6.70;2.00;;;;;;;;;;5032700;28;20067;-80
2021/05/29 08:14:19;;;;;;;7.88;1.88;;;;;;;;;;5021334;28;20036;-80
2021/05/29 08:16:47;;;;;;;10.23;2.20;;;;;;;;;;5030554;28;20357;-80
2021/05/29 08:19:24;;;;;;;7.30;1.98;;;;;;;;;;5006909;28;20576;-81
2021/05/29 08:21:51;;;;;;;6.88;2.00;;;;;;;;;;5010294;28;20103;-79
2021/05/29 08:24:17;;;;;;;7.00;1.90;;;;;;;;;;5026189;28;20041;-81
2021/05/29 08:26:45;;;;;;;8.43;1.63;;;;;;;;;;5030335;28;20026;-79
2021/05/29 08:29:14;;;;;;;7.72;1.77;;;;;;;;;;5025930;28;20029;-80
2021/05/29 08:31:45;;;;;;;7.63;1.63;;;;;;;;;;5026189;28;20147;-80
2021/05/29 08:34:11;;;;;;;7.25;2.00;;;;;;;;;;5023517;28;20120;-79
2021/05/29 08:36:40;;;;;;;7.03;1.70;;;;;;;;;;5022327;28;20156;-80
2021/05/29 08:39:06;;;;;;;8.88;1.73;;;;;;;;;;5028365;28;20037;-79
2021/05/29 08:41:33;;;;;;;7.03;1.80;;;;;;;;;;5027985;28;20057;-79
2021/05/29 08:46:52;;;;;;;7.18;1.70;;;;;;;;;;5026687;28;20515;-81
2021/05/29 08:49:21;;;;;;;7.05;1.60;;;;;;;;;;5024608;28;20041;-81
2021/05/29 08:51:49;;;;;;;6.43;1.35;;;;;;;;;;5031632;28;20032;-80
2021/05/29 08:54:16;;;;;;;5.93;1.33;;;;;;;;;;5022170;28;20032;-80
2021/05/29 08:56:44;;;;;;;6.97;1.52;;;;;;;;;;5024845;28;20059;-81
2021/05/29 08:59:12;;;;;;;5.50;1.63;;;;;;;;;;5018354;28;20044;-80
2021/05/29 09:01:43;;;;;;;6.65;1.70;;;;;;;;;;5025593;28;20159;-80
2021/05/29 09:04:09;;;;;;;7.03;1.70;;;;;;;;;;5019046;28;20040;-80
2021/05/29 09:06:36;;;;;;;5.57;1.60;;;;;;;;;;5025935;28;20040;-80
2021/05/29 09:09:23;;;;;;;5.85;1.50;;;;;;;;;;5029172;28;20024;-79
2021/05/29 09:11:52;;;;;;;4.88;1.38;;;;;;;;;;5025653;28;20179;-80
2021/05/29 09:14:23;;;;;;;7.63;1.58;;;;;;;;;;5022946;28;20048;-80
2021/05/29 09:17:08;;;;;;;6.95;1.75;;;;;;;;;;5024265;28;20044;-80
2021/05/29 09:19:55;;;;;;;7.47;1.60;;;;;;;;;;5024971;28;20025;-81
2021/05/29 09:22:24;;;;;;;5.90;1.40;;;;;;;;;;5019633;28;20045;-81
2021/05/29 09:24:59;;;;;;;6.57;1.33;;;;;;;;;;5029563;28;20070;-84
2021/05/29 09:27:26;;;;;;;;;;;;;;;;;;5025902;28;20053;-80
2021/05/29 09:29:54;;;;;;;9.20;3.60;;;;;;;;;;5029232;28;19912;-82
2021/05/29 09:32:21;;;;;;;6.45;1.77;;;;;;;;;;5008797;28;20097;-81
2021/05/29 09:34:56;;;;;;;5.50;1.58;;;;;;;;;;5013925;28;20667;-80
2021/05/29 09:37:27;;;;;;;5.72;1.40;;;;;;;;;;5024145;28;20118;-80
2021/05/29 09:39:55;;;;;;;6.35;2.00;;;;;;;;;;5009198;28;20025;-80
2021/05/29 09:42:33;;;;;;;7.60;1.98;;;;;;;;;;5025986;28;20032;-81
2021/05/29 09:45:39;;;;;;;6.55;1.95;;;;;;;;;;5025086;28;20040;-79
2021/05/29 09:48:19;;;;;;;6.80;2.05;;;;;;;;;;4945196;28;20031;-79
2021/05/29 09:51:16;;;;;;;8.15;2.20;;;;;;;;;;4945130;28;20133;-80
2021/05/29 09:53:42;;;;;;;;;;;;;;;;;;4903902;29;20127;-80
2021/05/29 09:56:11;;;;;;;5.68;1.20;;;;;;;;;;4904280;29;19918;-79
2021/05/29 09:58:59;;;;;;;6.07;1.60;;;;;;;;;;4907991;29;20036;-80
2021/05/29 10:01:49;;;;;;;4.93;1.30;;;;;;;;;;4900069;29;20056;-82
2021/05/29 10:04:18;;;;;;;6.57;1.70;;;;;;;;;;4904917;28;20046;-82
2021/05/29 10:06:55;;;;;;;5.60;1.30;;;;;;;;;;4908017;29;20565;-82
2021/05/29 10:09:23;;;;;;;5.57;1.40;;;;;;;;;;4903665;28;20086;-81
2021/05/29 10:11:49;;;;;;;5.07;1.30;;;;;;;;;;4892403;29;20052;-81
2021/05/29 10:14:16;;;;;;;6.00;1.30;;;;;;;;;;4887775;29;20038;-81
2021/05/29 10:19:39;;;;;;;6.97;1.40;;;;;;;;;;4909220;29;20055;-81
2021/05/29 10:22:15;;;;;;;6.00;1.50;;;;;;;;;;4902164;28;20047;-87
2021/05/29 10:25:11;;;;;;;7.68;1.67;;;;;;;;;;4939145;28;21100;-85
2021/05/29 10:27:39;;;;;;;5.45;1.35;;;;;;;;;;4937134;28;20480;-85
2021/05/29 10:30:06;;;;;;;4.50;1.40;;;;;;;;;;4963543;28;20030;-87
2021/05/29 10:32:33;;;;;;;6.82;1.42;;;;;;;;;;4995397;28;20038;-87
2021/05/29 10:35:06;;;;;;;6.15;1.30;;;;;;;;;;4999020;28;20125;-86
2021/05/29 10:37:37;;;;;;;6.95;1.50;;;;;;;;;;4998074;28;20042;-85
2021/05/29 10:40:22;;;;;;;5.38;1.52;;;;;;;;;;4992430;28;20029;-82
2021/05/29 10:43:07;;;;;;;5.65;1.63;;;;;;;;;;4989126;28;20056;-81
2021/05/29 10:45:37;;;;;;;5.65;1.63;;;;;;;;;;4986417;28;21488;-81
2021/05/29 10:48:28;;;;;;;4.78;1.13;;;;;;;;;;4989086;28;20029;-81
2021/05/29 10:51:07;;;;;;;6.10;1.50;;;;;;;;;;4989420;28;20037;-81
2021/05/29 10:53:41;;;;;;;5.63;1.17;;;;;;;;;;5000703;28;20355;-82
2021/05/29 10:56:26;;;;;;;7.13;2.15;;;;;;;;;;4987456;28;20064;-83
2021/05/29 10:58:59;;;;;;;5.82;1.30;;;;;;;;;;5002453;28;20026;-82
2021/05/29 11:01:43;;;;;;;5.68;1.70;;;;;;;;;;4987943;28;20025;-82
2021/05/29 11:04:32;;;;;;;7.15;1.60;;;;;;;;;;5002709;28;20044;-82
2021/05/29 11:07:00;;;;;;;8.70;1.80;;;;;;;;;;4908710;29;20168;-81
2021/05/29 11:09:33;;;;;;;9.15;1.80;;;;;;;;;;4885857;29;20039;-81
2021/05/29 11:11:59;;;;;;;6.85;1.55;;;;;;;;;;4904832;29;20751;-80
2021/05/29 11:14:48;;;;;;;7.00;1.58;;;;;;;;;;4902702;29;20036;-81
2021/05/29 11:17:17;;;;;;;6.80;1.75;;;;;;;;;;4905022;28;20059;-81
2021/05/29 11:19:59;;;;;;;4.95;1.20;;;;;;;;;;4908602;28;20032;-81
2021/05/29 11:26:07;;;;;;;5.87;1.30;;;;;;;;;;4931527;28;20133;-83
2021/05/29 11:28:37;;;;;;;6.93;1.50;;;;;;;;;;4934376;28;20118;-82
2021/05/29 11:31:05;;;;;;;5.72;1.58;;;;;;;;;;4929738;28;20066;-82
2021/05/29 11:33:32;;;;;;;5.88;1.30;;;;;;;;;;4918432;28;20579;-82
2021/05/29 11:35:59;;;;;;;5.82;1.50;;;;;;;;;;4928791;28;20031;-83
2021/05/29 11:38:34;;;;;;;8.10;2.08;;;;;;;;;;4927710;28;20122;-82
2021/05/29 11:41:16;;;;;;;5.88;1.60;;;;;;;;;;4917039;28;20562;-83
2021/05/29 11:43:49;;;;;;;5.80;1.40;;;;;;;;;;4957232;28;20520;-82
2021/05/29 11:46:29;;;;;;;6.57;1.40;;;;;;;;;;5012837;28;20045;-83
2021/05/29 11:49:01;;;;;;;5.03;1.30;;;;;;;;;;5023129;28;20030;-83
2021/05/29 11:51:32;;;;;;;6.00;1.98;;;;;;;;;;5004239;28;21221;-83
2021/05/29 11:54:08;;;;;;;5.10;1.40;;;;;;;;;;5015328;28;20063;-83
2021/05/29 11:56:48;;;;;;;7.15;1.80;;;;;;;;;;5024922;28;20029;-82
2021/05/29 11:59:16;;;;;;;6.45;1.38;;;;;;;;;;5007502;28;20029;-82
2021/05/29 12:01:48;;;;;;;7.20;1.60;;;;;;;;;;5023875;28;20497;-81
2021/05/29 12:04:17;;;;;;;6.13;1.90;;;;;;;;;;5016398;28;20032;-84
2021/05/29 12:07:02;;;;;;;7.00;1.38;;;;;;;;;;5010920;28;20052;-83
2021/05/29 12:09:39;;;;;;;7.03;1.60;;;;;;;;;;5019989;28;20712;-84
2021/05/29 12:12:12;;;;;;;6.07;1.80;;;;;;;;;;5033776;28;20060;-81
2021/05/29 12:14:41;;;;;;;5.80;1.60;;;;;;;;;;5026215;28;20120;-83
2021/05/29 12:17:08;;;;;;;4.25;1.33;;;;;;;;;;5013701;28;20084;-82
2021/05/29 12:19:57;;;;;;;5.78;1.40;;;;;;;;;;5025662;28;20037;-81
2021/05/29 12:22:24;;;;;;;6.88;1.40;;;;;;;;;;5016594;28;20696;-82
2021/05/29 12:25:04;;;;;;;5.30;1.38;;;;;;;;;;5000339;28;20030;-81
2021/05/29 12:27:33;;;;;;;6.18;1.83;;;;;;;;;;4987658;28;20037;-83
2021/05/29 12:30:02;;;;;;;6.63;1.70;;;;;;;;;;4995066;28;20445;-84
2021/05/29 12:32:51;;;;;;;5.80;1.50;;;;;;;;;;4984548;28;20041;-82
2021/05/29 12:35:39;;;;;;;4.60;1.50;;;;;;;;;;4989116;28;20052;-84
2021/05/29 12:38:09;;;;;;;4.97;1.45;;;;;;;;;;4973918;28;20038;-81
2021/05/29 12:40:37;;;;;;;6.63;1.55;;;;;;;;;;4967728;28;20034;-83
2021/05/29 12:43:14;;;;;;;3.92;1.05;;;;;;;;;;4974819;28;20069;-83
2021/05/29 12:45:43;;;;;;;5.78;1.67;;;;;;;;;;4988809;28;20037;-83
2021/05/29 12:48:11;;;;;;;6.15;1.80;;;;;;;;;;4970565;28;20450;-82
2021/05/29 12:50:40;;;;;;;8.63;1.80;;;;;;;;;;4988092;28;20033;-83
2021/05/29 12:53:17;;;;;;;5.70;1.40;;;;;;;;;;4971506;28;21019;-83
2021/05/29 12:55:47;;;;;;;7.32;1.77;;;;;;;;;;4993710;28;20034;-82
2021/05/29 13:09:41;;;;;;;4.85;1.30;;;;;;;;;;4995894;28;20091;-80
2021/05/29 13:12:15;;;;;;;5.68;1.45;;;;;;;;;;4986140;28;20037;-82
2021/05/29 13:14:46;;;;;;;7.60;1.70;;;;;;;;;;4990459;28;20028;-83
2021/05/29 13:17:32;;;;;;;6.03;1.75;;;;;;;;;;5004183;28;20037;-81
2021/05/29 13:20:06;;;;;;;8.73;2.47;;;;;;;;;;5006234;28;20052;-81
2021/05/29 13:22:40;;;;;;;5.32;1.40;;;;;;;;;;4990480;28;20524;-81
2021/05/29 13:25:20;;;;;;;6.43;1.47;;;;;;;;;;5030008;28;20037;-82
2021/05/29 13:27:54;;;;;;;5.80;1.67;;;;;;;;;;5031977;28;20744;-81
2021/05/29 13:30:25;;;;;;;5.85;1.55;;;;;;;;;;5007480;28;20052;-82
2021/05/29 13:33:07;;;;;;;6.85;2.00;;;;;;;;;;5031227;28;20039;-82
2021/05/29 13:35:58;;;;;;;5.40;1.85;;;;;;;;;;5029577;28;20051;-82
2021/05/29 13:38:26;;;;;;;6.82;1.48;;;;;;;;;;5025303;28;20079;-83
2021/05/29 13:40:53;;;;;;;6.63;1.60;;;;;;;;;;5032680;28;20670;-83
2021/05/29 13:43:20;;;;;;;4.38;1.40;;;;;;;;;;5023097;28;20036;-83
2021/05/29 13:45:47;;;;;;;5.50;1.58;;;;;;;;;;5030133;28;20024;-81
2021/05/29 13:48:17;;;;;;;6.30;1.80;;;;;;;;;;5030410;28;20021;-83
2021/05/29 13:50:44;;;;;;;6.22;1.40;;;;;;;;;;5028847;28;20041;-82
2021/05/29 13:53:10;;;;;;;8.95;2.30;;;;;;;;;;5010818;28;21600;-81
2021/05/29 13:55:37;;;;;;;8.50;3.40;;;;;;;;;;5029113;28;20024;-82
2021/05/29 13:58:05;;;;;;;8.32;2.40;;;;;;;;;;5010533;28;20418;-82
2021/05/29 14:00:34;;;;;;;5.80;1.83;;;;;;;;;;5027968;28;20029;-86
2021/05/29 14:03:03;;;;;;;6.05;1.40;;;;;;;;;;5041753;28;20043;-86
2021/05/29 14:05:30;;;;;;;7.85;2.17;;;;;;;;;;5033613;28;20057;-85
2021/05/29 14:08:22;;;;;;;6.85;1.83;;;;;;;;;;5036581;28;20105;-85
2021/05/29 14:10:50;;;;;;;6.45;1.45;;;;;;;;;;5019512;28;20143;-85
2021/05/29 14:13:18;;;;;;;6.28;2.15;;;;;;;;;;5035012;28;20033;-86
2021/05/29 14:15:46;;;;;;;5.20;1.60;;;;;;;;;;5038141;28;20036;-85
2021/05/29 14:18:13;;;;;;;8.00;2.80;;;;;;;;;;5036237;28;20029;-85
2021/05/29 14:20:41;;;;;;;10.00;2.53;;;;;;;;;;5040430;28;20070;-84
2021/05/29 14:23:07;;;;;;;6.00;2.00;;;;;;;;;;5036271;28;20048;-85
2021/05/29 14:25:34;;;;;;;5.75;1.80;;;;;;;;;;5022690;28;20032;-86
2021/05/29 14:28:06;;;;;;;8.05;3.50;;;;;;;;;;5025082;28;20381;-87
2021/05/29 14:30:33;;;;;;;8.35;3.70;;;;;;;;;;5039336;28;20068;-86
2021/05/29 14:38:46;;;;;;;7.53;3.15;;;;;;;;;;5042983;28;20044;-86
2021/05/29 14:41:14;;;;;;;6.32;2.17;;;;;;;;;;5032997;28;20503;-88
2021/05/29 14:43:41;;;;;;;7.13;2.53;;;;;;;;;;5040796;28;20032;-86
2021/05/29 14:46:07;;;;;;;8.32;2.38;;;;;;;;;;5022219;28;20028;-85
2021/05/29 14:48:34;;;;;;;6.35;2.30;;;;;;;;;;5039234;28;20052;-85
2021/05/29 14:51:20;;;;;;;6.93;2.17;;;;;;;;;;5041980;28;20025;-84
2021/05/29 14:53:59;;;;;;;5.63;1.40;;;;;;;;;;5029230;28;20118;-82
2021/05/29 14:56:27;;;;;;;5.13;1.30;;;;;;;;;;5027207;28;20033;-79
2021/05/29 14:58:54;;;;;;;6.40;1.80;;;;;;;;;;5020306;28;20140;-79
2021/05/29 15:01:42;;;;;;;4.97;1.75;;;;;;;;;;5023102;28;20028;-79
2021/05/29 15:04:11;;;;;;;9.95;1.60;;;;;;;;;;4965192;28;20057;-80
2021/05/29 15:06:40;;;;;;;7.40;1.80;;;;;;;;;;4963958;28;20042;-79
2021/05/29 15:09:31;;;;;;;5.00;1.30;;;;;;;;;;4989815;28;20029;-84
2021/05/29 15:11:57;;;;;;;6.78;1.40;;;;;;;;;;4983531;28;20727;-81
2021/05/29 15:14:24;;;;;;;11.43;6.68;;;;;;;;;;4967016;28;20109;-84
2021/05/29 15:16:51;;;;;;;11.05;2.50;;;;;;;;;;4987545;28;20026;-82
2021/05/29 15:19:19;;;;;;;5.18;2.10;;;;;;;;;;4964865;28;20033;-83
2021/05/29 15:21:48;;;;;;;7.28;2.60;;;;;;;;;;4973463;28;20026;-84
2021/05/29 15:24:18;;;;;;;4.32;1.30;;;;;;;;;;4965145;28;20038;-83
2021/05/29 15:27:03;;;;;;;9.35;3.30;;;;;;;;;;4970990;28;20474;-82
2021/05/29 15:29:36;;;;;;;5.97;1.42;;;;;;;;;;4984507;28;20034;-81
2021/05/29 15:32:08;;;;;;;5.30;1.48;;;;;;;;;;4982390;28;20030;-82
2021/05/29 15:34:35;;;;;;;6.25;1.67;;;;;;;;;;4973240;28;20056;-82
2021/05/29 15:37:04;;;;;;;5.95;1.23;;;;;;;;;;4969675;28;20068;-82
2021/05/29 15:39:30;;;;;;;6.22;2.35;;;;;;;;;;4981072;28;20216;-84